Elma, WA

4:35 PM PDT on September 02, 2015 (GMT -0700)
Downtown Elma | | Change Station
CLOSE
Current Station
Personal Weather Station
Location: Elma, WA
Elevation: 59 ft
Nearby Weather Stations

Elev 59 ft 47.01 °N, 123.41 °W | Updated 49 seconds ago

Mostly Cloudy
Mostly Cloudy
70.3 °F
Feels Like 77 °F
N
6.0
Wind Variable Wind from West
Gusts 8.3 mph

Today
High -- | Low -- °F
--% Chance of Precip.
Yesterday
High -- | Low -- °F
Precip. -- in
6:34 AM 7:51 PM
Waning Gibbous, 76% visible
Pressure 29.88 in
Visibility 10.0 miles
Clouds Few 4900 ft
Few 7500 ft
Scattered Clouds 9500 ft
Heat Index 77 °F
Dew Point 53 °F
Humidity 55%
Rainfall 0.07 in
Snow Depth Not available.
UV 4 out of 12
Pollen .50 out of 12
Air Quality Not available.
Flu Activity Not available.
METAR KSHN 022253Z AUTO 24008KT 220V290 10SM FEW049 FEW075 SCT095 19/08 A2988 RMK AO2 SLP117 T01940078
Pressure 29.88 in
Visibility 10.0 miles
Clouds Few 4900 ft
Few 7500 ft
Scattered Clouds 9500 ft
Heat Index 77 °F
Dew Point 53 °F
Humidity 55%
Rainfall 0.07 in
Snow Depth Not available.
UV 4 out of 12
Pollen .50 out of 12
Air Quality Not available.
Flu Activity Not available.
METAR KSHN 022253Z AUTO 24008KT 220V290 10SM FEW049 FEW075 SCT095 19/08 A2988 RMK AO2 SLP117 T01940078

10-Day Weather Forecast

×

Almanac

Astronomy

Sep. 02, 2015 Rise Set
Actual Time
Civil Twilight
Nautical Twilight
Astronomical Twilight
Moon
Length of Visible Light
Length of Day
Tomorrow will be .
, % of the Moon is Illuminated

Today's Extremes

State Highs State Lows

Community

WunderPhotos

Upload Photos

1,851,831 photos uploaded!

WunderBlogs® & News

Nearby

Air Quality

  Air Quality AQ Index Pollutant
Not available.

Snow Depth

Station Depth Elevation

Earthquake Activity

City Distance Mag. Time & Date
Minimum magnitude displayed is 2.5.

Coastal Water Temperatures

Place Temperature

Stations

Nearby Weather Stations

Station Location Temp. Windchill Dew Point Humidity Wind Precip. Elev Updated Type